Time;durP1;ratioP1;P1;durP2;ratioP2;P2;SDS_P1;SDS_P2;PMS_P1;PMS_P2;Temp;Humidity;BMP_temperature;BMP_pressure;BME280_temperature;BME280_humidity;BME280_pressure;Samples;Min_cycle;Max_cycle;Signal;HPM_P1;HPM_P2
2022/02/07 00:00:07;;;;;;;0.80;0.60;;;;;;;7.47;59.73;96552.53;5033740;28;20478;-67
2022/02/07 00:03:19;;;;;;;0.80;0.57;;;;;;;7.35;59.71;96552.75;5033406;28;20434;-66
2022/02/07 00:05:25;;;;;;;2.03;0.60;;;;;;;7.44;59.27;96547.59;5042490;28;20454;-67
2022/02/07 00:07:50;;;;;;;0.80;0.50;;;;;;;7.39;59.23;96545.44;5054303;28;20420;-67
2022/02/07 00:10:16;;;;;;;1.40;0.60;;;;;;;7.41;59.66;96540.91;5046676;28;20449;-67
2022/02/07 00:12:41;;;;;;;0.70;0.50;;;;;;;7.32;59.57;96507.88;5034282;28;20647;-66
2022/02/07 00:15:11;;;;;;;0.80;0.50;;;;;;;7.21;60.35;96519.38;5040412;28;20192;-67
2022/02/07 00:17:36;;;;;;;1.23;0.80;;;;;;;7.24;60.12;96519.09;5034183;28;20200;-66
2022/02/07 00:20:07;;;;;;;1.95;0.50;;;;;;;7.13;60.12;96507.06;5034048;28;20409;-66
2022/02/07 00:22:33;;;;;;;0.80;0.50;;;;;;;7.16;60.46;96560.69;5051745;28;20198;-66
2022/02/07 00:24:58;;;;;;;0.90;0.60;;;;;;;7.12;60.22;96582.81;5054104;28;20418;-67
2022/02/07 00:27:24;;;;;;;1.00;0.80;;;;;;;7.05;60.62;96582.56;5036786;28;20689;-67
2022/02/07 00:29:49;;;;;;;0.80;0.50;;;;;;;7.03;60.62;96563.66;5034086;28;20240;-66
2022/02/07 00:32:14;;;;;;;0.90;0.60;;;;;;;7.00;60.76;96540.47;5034532;28;20183;-66
2022/02/07 00:34:40;;;;;;;0.90;0.60;;;;;;;6.97;61.11;96553.78;5034491;28;20185;-66
2022/02/07 00:37:06;;;;;;;0.90;0.57;;;;;;;6.99;61.25;96567.50;5048498;28;20725;-66
2022/02/07 00:39:40;;;;;;;1.00;0.60;;;;;;;6.96;60.90;96573.81;5053201;28;20208;-66
2022/02/07 00:42:08;;;;;;;0.80;0.60;;;;;;;6.97;61.26;96579.84;5051324;28;20450;-66
2022/02/07 00:44:34;;;;;;;0.90;0.60;;;;;;;6.95;60.93;96585.22;5017756;28;20449;-66
2022/02/07 00:47:06;;;;;;;0.90;0.50;;;;;;;6.87;60.49;96593.75;5033952;28;20903;-66
2022/02/07 00:49:31;;;;;;;0.80;0.50;;;;;;;6.77;60.93;96603.38;5033571;28;20189;-66
2022/02/07 00:51:57;;;;;;;0.80;0.60;;;;;;;6.75;61.32;96626.16;5033844;28;20443;-66
2022/02/07 00:54:22;;;;;;;0.83;0.60;;;;;;;6.85;61.54;96624.31;5033372;28;20178;-66
2022/02/07 00:56:47;;;;;;;0.90;0.60;;;;;;;6.80;61.53;96595.28;5033785;28;20236;-66
2022/02/07 00:59:13;;;;;;;1.73;0.73;;;;;;;6.82;61.12;96624.59;5033424;28;20208;-66
2022/02/07 01:01:39;;;;;;;0.83;0.50;;;;;;;6.72;61.31;96621.22;5033064;28;20210;-66
2022/02/07 01:04:05;;;;;;;1.37;0.63;;;;;;;6.60;61.44;96610.97;5033467;28;20556;-66
2022/02/07 01:06:31;;;;;;;1.77;0.60;;;;;;;6.71;61.50;96601.34;5032386;28;20185;-67
2022/02/07 01:09:38;;;;;;;1.00;0.60;;;;;;;6.68;61.29;96614.66;5033067;28;20544;-67
2022/02/07 01:22:38;;;;;;;1.30;0.80;;;;;;;7.09;60.58;96651.66;5044266;28;20862;-67
2022/02/07 01:56:52;;;;;;;0.80;0.60;;;;;;;7.29;59.47;96766.28;5047653;28;20692;-67
2022/02/07 01:59:18;;;;;;;0.90;0.70;;;;;;;7.35;59.32;96771.72;5042028;28;20426;-67
2022/02/07 02:01:43;;;;;;;1.30;0.73;;;;;;;7.32;59.63;96785.03;5044353;28;20342;-67
2022/02/07 02:04:09;;;;;;;0.90;0.70;;;;;;;7.34;59.56;96797.94;5048303;28;20178;-67
2022/02/07 02:06:35;;;;;;;2.90;0.90;;;;;;;7.35;59.47;96807.41;5050153;28;20187;-67
2022/02/07 02:09:03;;;;;;;1.40;0.80;;;;;;;7.32;59.53;96829.38;5048819;28;20189;-67
2022/02/07 02:11:28;;;;;;;1.00;0.60;;;;;;;7.40;59.99;96826.06;5063636;28;20474;-67
2022/02/07 02:46:50;;;;;;;2.70;0.93;;;;;;;7.71;59.31;96914.50;5034943;28;20423;-66
2022/02/07 02:49:15;;;;;;;4.60;0.70;;;;;;;7.72;59.17;96913.53;5051269;28;21006;-66
2022/02/07 02:51:41;;;;;;;1.00;0.70;;;;;;;7.64;59.63;96916.84;5052669;28;20449;-66
2022/02/07 02:54:07;;;;;;;2.23;0.70;;;;;;;7.65;58.96;96918.50;5043217;28;20602;-66
2022/02/07 02:56:34;;;;;;;4.43;1.57;;;;;;;7.62;58.88;96923.16;5033775;28;20210;-66
2022/02/07 02:58:59;;;;;;;3.17;0.80;;;;;;;7.62;59.39;96931.00;5030904;28;20695;-67
2022/02/07 03:01:25;;;;;;;3.63;1.00;;;;;;;7.66;59.25;96941.00;5031193;28;20450;-67
2022/02/07 03:03:50;;;;;;;3.97;1.10;;;;;;;7.58;58.83;96937.44;5031421;28;20604;-67
2022/02/07 03:06:16;;;;;;;1.87;1.40;;;;;;;7.58;59.07;96953.09;5031161;28;20183;-67
2022/02/07 03:08:42;;;;;;;2.03;1.20;;;;;;;7.44;58.95;96973.41;5033632;28;20553;-67
2022/02/07 03:11:15;;;;;;;3.00;1.20;;;;;;;7.50;59.34;96977.25;5043963;28;20458;-67
2022/02/07 03:18:57;;;;;;;2.77;0.97;;;;;;;7.50;58.44;97000.72;5030638;28;21123;-66
2022/02/07 03:21:23;;;;;;;4.03;1.30;;;;;;;7.45;58.93;97000.31;5030988;28;20527;-66
2022/02/07 03:23:48;;;;;;;4.10;0.97;;;;;;;7.46;58.85;97010.63;5031170;28;20191;-66
2022/02/07 03:26:17;;;;;;;1.20;0.80;;;;;;;7.47;58.88;97014.88;5031291;28;20179;-66
2022/02/07 03:28:43;;;;;;;3.50;1.00;;;;;;;7.43;58.60;97000.47;5030684;28;20195;-66
2022/02/07 03:31:09;;;;;;;6.00;1.33;;;;;;;7.48;59.14;96995.66;5012247;28;20986;-66
2022/02/07 03:33:36;;;;;;;1.20;1.00;;;;;;;7.51;58.58;96990.19;5040763;28;20194;-66
2022/02/07 03:36:02;;;;;;;1.90;1.10;;;;;;;7.56;58.67;97002.00;5045466;28;20465;-66
2022/02/07 03:38:27;;;;;;;2.80;1.10;;;;;;;7.52;58.72;97017.91;5030398;28;20437;-66
2022/02/07 03:40:53;;;;;;;4.27;1.10;;;;;;;7.58;58.41;97031.34;5038716;28;20444;-66
2022/02/07 03:43:18;;;;;;;8.63;1.30;;;;;;;7.56;57.73;97041.09;5030304;28;20735;-66
2022/02/07 03:45:43;;;;;;;3.20;1.10;;;;;;;7.48;57.83;97053.03;5030352;28;20234;-66
2022/02/07 03:48:09;;;;;;;3.40;1.30;;;;;;;7.52;57.63;97101.34;5045803;28;20184;-66
2022/02/07 03:50:34;;;;;;;7.20;1.43;;;;;;;7.40;58.74;97203.28;5048473;28;20216;-67
2022/02/07 03:53:00;;;;;;;2.57;0.90;;;;;;;6.86;59.43;97203.50;5050758;28;20192;-66
2022/02/07 03:55:25;;;;;;;1.50;0.70;;;;;;;6.79;59.39;97218.81;5048748;28;20773;-66
2022/02/07 03:57:51;;;;;;;1.17;0.80;;;;;;;6.71;59.86;97218.59;5030738;28;20205;-66
2022/02/07 04:00:17;;;;;;;2.10;0.80;;;;;;;6.77;59.84;97220.72;5030198;28;20510;-66
2022/02/07 04:02:45;;;;;;;1.97;0.70;;;;;;;6.69;60.13;97207.47;5033046;28;20199;-66
2022/02/07 04:05:36;;;;;;;1.80;0.70;;;;;;;6.62;59.84;97207.16;5050541;28;20263;-66
2022/02/07 04:07:57;;;;;;;1.63;0.60;;;;;;;6.52;59.37;97206.28;5043156;28;20421;-66
2022/02/07 04:10:23;;;;;;;1.33;0.73;;;;;;;6.45;59.01;97229.38;5050201;28;20458;-66
2022/02/07 04:12:55;;;;;;;1.20;0.80;;;;;;;6.44;58.95;97227.72;5032160;28;20426;-66
2022/02/07 04:15:21;;;;;;;1.90;0.70;;;;;;;6.45;59.21;97225.03;5042516;28;20429;-66
2022/02/07 04:17:54;;;;;;;0.90;0.70;;;;;;;6.55;59.01;97235.50;5050363;28;20468;-66
2022/02/07 04:20:20;;;;;;;3.00;0.67;;;;;;;6.48;58.23;97263.00;5050119;28;20208;-66
2022/02/07 04:22:45;;;;;;;0.83;0.60;;;;;;;6.51;58.01;97257.53;5050274;28;20417;-66
2022/02/07 04:25:10;;;;;;;1.40;0.90;;;;;;;6.58;58.26;97269.09;5050102;28;20434;-66
2022/02/07 04:27:36;;;;;;;5.73;1.70;;;;;;;6.54;58.09;97283.34;5030673;28;20195;-66
2022/02/07 04:30:04;;;;;;;1.87;0.70;;;;;;;6.54;57.66;97293.75;5045628;28;20548;-66
2022/02/07 04:32:29;;;;;;;2.00;0.80;;;;;;;6.49;57.53;97295.91;5030154;28;20193;-66
2022/02/07 04:34:55;;;;;;;1.10;0.80;;;;;;;6.39;57.24;97308.00;5030321;28;20485;-66
2022/02/07 04:37:20;;;;;;;2.27;0.80;;;;;;;6.29;57.53;97313.13;5029575;28;20206;-65
2022/02/07 04:39:46;;;;;;;4.20;1.00;;;;;;;6.33;57.43;97324.09;5035089;28;20189;-66
2022/02/07 04:42:13;;;;;;;0.90;0.67;;;;;;;6.47;57.80;97331.66;5031659;28;20230;-66
2022/02/07 04:44:53;;;;;;;7.00;0.80;;;;;;;6.48;57.33;97328.09;5027739;28;20196;-67
2022/02/07 04:58:42;;;;;;;4.37;1.23;;;;;;;6.43;57.42;97377.09;5034009;28;20415;-66
2022/02/07 05:01:22;;;;;;;2.13;0.80;;;;;;;6.37;57.41;97375.00;5032707;28;20495;-67
2022/02/07 05:03:53;;;;;;;19.70;3.40;;;;;;;6.32;57.74;97372.75;5053709;28;20441;-67
2022/02/07 05:14:33;;;;;;;3.37;1.20;;;;;;;6.45;56.61;97424.66;5053565;28;20423;-66
2022/02/07 05:16:59;;;;;;;12.53;1.57;;;;;;;6.39;57.39;97430.38;5034504;28;20621;-67
2022/02/07 05:19:25;;;;;;;7.20;1.50;;;;;;;6.38;57.03;97439.13;5032646;28;20930;-67
2022/02/07 05:21:50;;;;;;;2.60;0.93;;;;;;;6.41;57.14;97444.09;5048265;28;20509;-67
2022/02/07 05:24:16;;;;;;;2.90;1.27;;;;;;;6.41;56.86;97444.09;5032972;28;20187;-66
2022/02/07 05:26:42;;;;;;;4.57;2.00;;;;;;;6.42;56.74;97445.75;5031942;28;20188;-67
2022/02/07 05:29:07;;;;;;;4.30;2.30;;;;;;;6.31;56.81;97454.41;5032653;28;20221;-67
2022/02/07 05:31:33;;;;;;;5.00;2.13;;;;;;;6.24;57.03;97455.81;5032267;28;20203;-67
2022/02/07 05:33:59;;;;;;;6.10;2.07;;;;;;;6.16;57.29;97469.44;5044723;28;20330;-67
2022/02/07 05:36:24;;;;;;;4.00;2.00;;;;;;;6.21;57.60;97482.09;5035257;28;20550;-67
2022/02/07 05:38:54;;;;;;;5.37;2.43;;;;;;;6.35;57.34;97483.63;5043828;28;20180;-66
2022/02/07 05:41:19;;;;;;;3.30;1.40;;;;;;;6.32;57.44;97491.66;5044578;28;20210;-68
2022/02/07 05:43:47;;;;;;;5.00;1.37;;;;;;;6.35;56.47;97507.91;5031859;28;20435;-67
2022/02/07 05:46:13;;;;;;;2.83;1.33;;;;;;;6.34;56.95;97515.81;5034442;28;20639;-67
2022/02/07 05:48:39;;;;;;;7.23;2.03;;;;;;;6.38;57.05;97519.84;5042583;28;20434;-68
2022/02/07 05:51:04;;;;;;;6.83;2.20;;;;;;;6.29;56.76;97509.19;5046443;28;20446;-67
2022/02/07 05:53:30;;;;;;;3.10;1.37;;;;;;;6.28;56.74;97528.38;5035317;28;20700;-67
2022/02/07 05:55:55;;;;;;;3.23;1.43;;;;;;;6.27;57.12;97523.25;5051797;28;20266;-67
2022/02/07 05:58:21;;;;;;;3.20;1.70;;;;;;;6.34;56.89;97536.63;5035821;28;20315;-67
2022/02/07 06:00:46;;;;;;;2.93;1.77;;;;;;;6.42;56.81;97535.09;5031232;28;20218;-68
2022/02/07 06:03:12;;;;;;;4.93;1.70;;;;;;;6.38;57.12;97530.25;5031972;28;20587;-68
2022/02/07 06:05:37;;;;;;;3.13;2.10;;;;;;;6.40;56.85;97534.38;5049957;28;20201;-68
2022/02/07 06:08:03;;;;;;;6.10;2.30;;;;;;;6.38;56.99;97543.28;5043841;28;20271;-67
2022/02/07 06:10:28;;;;;;;5.80;2.10;;;;;;;6.39;57.12;97545.75;5042211;28;20242;-67
2022/02/07 06:12:53;;;;;;;3.23;1.57;;;;;;;6.44;56.33;97559.25;5051972;28;20187;-67
2022/02/07 06:15:19;;;;;;;5.33;1.50;;;;;;;6.44;55.92;97576.63;5043029;28;20178;-67
2022/02/07 06:17:49;;;;;;;2.13;1.30;;;;;;;6.51;56.25;97577.00;5036630;28;20212;-67
2022/02/07 06:20:14;;;;;;;6.33;1.30;;;;;;;6.52;56.60;97582.09;5047187;28;20202;-67
2022/02/07 06:22:40;;;;;;;2.80;1.37;;;;;;;6.47;56.38;97584.22;5040652;28;20416;-66
2022/02/07 06:25:05;;;;;;;4.53;1.40;;;;;;;6.48;56.72;97585.88;5031876;28;20269;-66
2022/02/07 06:27:31;;;;;;;3.03;1.40;;;;;;;6.48;56.70;97601.50;5031597;28;20661;-66
2022/02/07 06:29:56;;;;;;;2.53;1.70;;;;;;;6.53;56.51;97606.34;5039557;28;20198;-65
2022/02/07 06:32:22;;;;;;;1.70;1.13;;;;;;;6.64;56.69;97615.97;5046844;28;20181;-66
2022/02/07 06:34:47;;;;;;;6.90;2.10;;;;;;;6.68;56.81;97625.22;5043170;28;20189;-64
2022/02/07 06:37:13;;;;;;;3.87;1.40;;;;;;;6.67;56.70;97634.78;5036309;28;20201;-66
2022/02/07 06:39:39;;;;;;;3.83;1.40;;;;;;;6.72;56.39;97640.50;5041325;28;20685;-66
2022/02/07 06:42:04;;;;;;;6.07;1.00;;;;;;;6.68;55.70;97643.44;5046869;28;20455;-66
2022/02/07 06:44:30;;;;;;;2.00;1.10;;;;;;;6.67;55.82;97636.59;5013782;28;20659;-66
2022/02/07 06:46:55;;;;;;;4.40;1.30;;;;;;;6.71;55.95;97646.66;5039870;28;20181;-66
2022/02/07 06:49:21;;;;;;;2.97;1.33;;;;;;;6.75;56.05;97652.44;5047484;28;20191;-66
2022/02/07 06:51:46;;;;;;;5.33;1.50;;;;;;;6.78;55.59;97669.59;5049147;28;20348;-66
2022/02/07 06:54:12;;;;;;;5.27;2.00;;;;;;;6.79;56.45;97672.13;5056054;28;20189;-66
2022/02/07 06:56:39;;;;;;;5.37;1.73;;;;;;;6.82;56.21;97674.47;5042439;28;20201;-66
2022/02/07 06:59:05;;;;;;;5.93;1.63;;;;;;;6.80;56.15;97681.59;5036416;28;20206;-66
2022/02/07 07:01:30;;;;;;;5.10;1.80;;;;;;;6.82;55.56;97695.31;5032055;28;20453;-66
2022/02/07 07:03:56;;;;;;;3.07;1.43;;;;;;;6.84;55.14;97710.84;5046366;28;20247;-66
2022/02/07 07:06:22;;;;;;;4.63;1.73;;;;;;;6.90;55.51;97716.41;5047270;28;20186;-66
2022/02/07 07:08:52;;;;;;;6.50;1.30;;;;;;;6.86;55.55;97725.41;5066102;28;20566;-66
2022/02/07 07:11:21;;;;;;;5.43;1.50;;;;;;;6.87;55.70;97736.66;5050810;28;20685;-66
2022/02/07 07:13:51;;;;;;;3.30;1.77;;;;;;;6.83;54.63;97735.25;5051033;28;20420;-66
2022/02/07 07:18:49;;;;;;;9.67;2.10;;;;;;;6.89;54.97;97753.00;5057520;28;20425;-66
2022/02/07 07:21:14;;;;;;;4.07;1.53;;;;;;;6.87;55.06;97762.69;5051284;28;20441;-66
2022/02/07 07:23:40;;;;;;;6.13;2.00;;;;;;;6.88;54.71;97759.16;5051010;28;20418;-67
2022/02/07 07:26:07;;;;;;;3.33;1.17;;;;;;;6.88;54.99;97760.00;5050717;28;20683;-66
2022/02/07 07:28:32;;;;;;;3.87;1.30;;;;;;;6.91;54.78;97765.00;5050944;28;20670;-66
2022/02/07 07:30:59;;;;;;;2.63;1.20;;;;;;;6.93;54.76;97769.25;5044089;28;20604;-67
2022/02/07 07:33:27;;;;;;;5.70;1.40;;;;;;;6.95;54.73;97775.16;5047184;28;20234;-68
2022/02/07 07:35:52;;;;;;;3.70;1.50;;;;;;;6.97;54.73;97773.28;5046665;28;20774;-67
2022/02/07 07:38:18;;;;;;;3.37;1.57;;;;;;;6.90;54.92;97789.38;5029002;28;20434;-67
2022/02/07 07:40:44;;;;;;;8.00;1.80;;;;;;;7.03;54.68;97798.91;5047416;28;20714;-69
2022/02/07 07:43:11;;;;;;;5.37;1.33;;;;;;;7.12;54.99;97786.94;5045998;28;20190;-65
2022/02/07 07:45:44;;;;;;;7.40;1.40;;;;;;;7.10;54.61;97800.09;5030798;28;20217;-70
2022/02/07 07:48:13;;;;;;;5.50;1.73;;;;;;;7.23;54.70;97795.59;5030794;28;20431;-68
2022/02/07 07:50:49;;;;;;;3.53;1.50;;;;;;;7.27;54.13;97814.44;5030343;28;20445;-67
2022/02/07 07:53:30;;;;;;;9.60;2.30;;;;;;;7.41;53.89;97802.97;5030562;28;20422;-66
2022/02/07 08:04:11;;;;;;;3.90;1.30;;;;;;;7.51;53.54;97814.34;5044020;28;20427;-66
2022/02/07 08:06:53;;;;;;;5.43;1.90;;;;;;;7.56;53.64;97818.41;5030509;28;20562;-67
2022/02/07 08:09:35;;;;;;;3.27;1.30;;;;;;;7.48;53.35;97814.59;5030008;28;20468;-67
2022/02/07 08:12:03;;;;;;;3.87;1.47;;;;;;;7.58;53.13;97819.09;5030538;28;20479;-65
2022/02/07 08:14:30;;;;;;;3.60;1.50;;;;;;;7.82;52.69;97811.97;5030617;28;20424;-66
2022/02/07 08:16:55;;;;;;;8.50;1.60;;;;;;;8.07;52.25;97832.72;5037827;28;20552;-67
2022/02/07 08:19:23;;;;;;;5.53;1.73;;;;;;;8.26;52.07;97822.44;5054128;28;20969;-65
2022/02/07 08:21:48;;;;;;;18.20;1.97;;;;;;;8.38;51.24;97823.25;5041849;28;20213;-67
2022/02/07 08:24:14;;;;;;;6.10;1.67;;;;;;;8.66;50.58;97831.53;5033944;28;20430;-66
2022/02/07 08:26:40;;;;;;;4.60;1.10;;;;;;;8.83;49.49;97826.69;5053364;28;20198;-67
2022/02/07 08:29:07;;;;;;;4.80;1.53;;;;;;;8.99;48.77;97839.34;5040127;28;20195;-68
2022/02/07 08:31:33;;;;;;;2.40;0.90;;;;;;;9.15;48.70;97838.88;5045951;28;20488;-67
2022/02/07 08:33:58;;;;;;;5.63;2.23;;;;;;;9.35;48.16;97840.66;5054053;28;20424;-64
2022/02/07 08:36:24;;;;;;;9.73;1.83;;;;;;;9.59;47.69;97855.25;5043313;28;20209;-66
2022/02/07 08:38:49;;;;;;;5.17;1.60;;;;;;;9.88;46.40;97864.22;5049820;28;20194;-68
2022/02/07 08:41:15;;;;;;;3.57;1.40;;;;;;;10.17;47.05;97880.03;5030887;28;20230;-67
2022/02/07 08:43:40;;;;;;;2.27;1.10;;;;;;;10.48;46.29;97887.84;5053487;28;20193;-68
2022/02/07 08:46:06;;;;;;;6.03;1.60;;;;;;;10.69;45.56;97905.28;5053914;28;20187;-68
2022/02/07 08:48:32;;;;;;;4.90;1.50;;;;;;;10.54;45.40;97905.66;5053458;28;20193;-68
2022/02/07 08:50:58;;;;;;;8.50;3.00;;;;;;;10.78;46.23;97916.72;5053512;28;20933;-68
2022/02/07 08:53:26;;;;;;;5.57;2.10;;;;;;;10.95;45.06;97920.47;5053501;28;20190;-67
2022/02/07 08:55:52;;;;;;;4.50;1.40;;;;;;;11.22;44.20;97923.22;5068549;28;20181;-67
2022/02/07 08:58:22;;;;;;;9.90;4.23;;;;;;;11.33;44.41;97930.13;5053639;28;20416;-67
2022/02/07 09:09:41;;;;;;;6.00;1.80;;;;;;;10.68;45.13;97956.03;5033241;28;20447;-69
2022/02/07 09:11:39;;;;;;;5.43;1.53;;;;;;;10.71;45.08;97961.84;5025475;28;20962;-68
2022/02/07 09:14:10;;;;;;;6.10;1.63;;;;;;;10.45;44.70;97951.84;5033227;28;20427;-67
2022/02/07 09:16:38;;;;;;;4.20;1.40;;;;;;;10.30;45.58;97953.97;5051110;28;20292;-68
2022/02/07 09:19:04;;;;;;;8.60;1.90;;;;;;;10.21;45.26;97959.97;5052634;28;20434;-68
2022/02/07 09:21:30;;;;;;;2.90;1.47;;;;;;;10.03;45.64;97972.84;5036711;28;20454;-68
2022/02/07 09:23:57;;;;;;;5.63;1.30;;;;;;;9.91;46.06;97990.44;5053352;28;20183;-68
2022/02/07 09:26:23;;;;;;;5.43;1.50;;;;;;;9.83;46.02;97998.09;5037010;28;20908;-67
2022/02/07 09:28:48;;;;;;;5.13;1.37;;;;;;;9.78;46.11;98001.09;5032919;28;20434;-68
2022/02/07 09:31:14;;;;;;;9.20;1.70;;;;;;;9.67;45.54;98002.03;5042258;28;20420;-68
2022/02/07 09:33:41;;;;;;;5.90;1.50;;;;;;;9.63;45.23;97999.78;5018721;28;20182;-68
2022/02/07 09:36:06;;;;;;;7.73;2.07;;;;;;;9.54;45.89;98009.22;5034297;28;20358;-68
2022/02/07 09:38:32;;;;;;;5.50;1.73;;;;;;;9.46;46.05;98012.47;5033893;28;20505;-68
2022/02/07 09:40:58;;;;;;;4.77;2.03;;;;;;;9.32;46.53;98021.44;5033092;28;20201;-68
2022/02/07 09:43:30;;;;;;;3.20;1.53;;;;;;;9.15;46.71;98029.81;5032686;28;20192;-68
2022/02/07 09:46:04;;;;;;;7.10;1.67;;;;;;;9.17;47.23;98031.34;5037394;28;20907;-67
2022/02/07 09:48:31;;;;;;;6.27;1.73;;;;;;;9.21;46.70;98029.31;5052604;28;20414;-68
2022/02/07 09:50:57;;;;;;;4.50;1.53;;;;;;;9.20;46.43;98033.72;5051914;28;20959;-68
2022/02/07 09:53:25;;;;;;;7.80;1.40;;;;;;;9.21;46.90;98042.38;5052125;28;20415;-68
2022/02/07 09:55:51;;;;;;;6.37;1.70;;;;;;;9.24;46.89;98050.00;5032358;28;20562;-68
2022/02/07 09:58:16;;;;;;;3.47;1.57;;;;;;;9.32;46.65;98052.84;5032382;28;20438;-68
2022/02/07 10:00:42;;;;;;;6.53;1.90;;;;;;;9.34;46.55;98052.69;5038226;28;20231;-68
2022/02/07 10:05:48;;;;;;;4.03;1.63;;;;;;;9.77;45.21;98056.22;5042738;28;20222;-68
2022/02/07 10:11:19;;;;;;;4.77;1.67;;;;;;;10.34;44.93;98058.50;5044351;28;20471;-68
2022/02/07 10:38:04;;;;;;;6.43;1.50;;;;;;;12.40;39.17;98106.97;5052931;28;20449;-68
2022/02/07 10:48:31;;;;;;;4.87;1.60;;;;;;;11.72;39.90;98133.25;5021721;28;20428;-67
2022/02/07 10:51:26;;;;;;;6.83;1.77;;;;;;;11.42;40.86;98132.38;5038578;28;20431;-67
2022/02/07 10:53:57;;;;;;;5.47;1.10;;;;;;;11.17;40.37;98132.72;5050670;28;20433;-67
2022/02/07 10:56:26;;;;;;;4.80;1.40;;;;;;;11.06;40.63;98140.69;5076160;28;20528;-67
2022/02/07 10:58:54;;;;;;;7.23;1.60;;;;;;;10.79;40.71;98131.63;5058779;28;20456;-67
2022/02/07 11:03:52;;;;;;;5.43;1.70;;;;;;;11.06;40.76;98143.31;5044516;28;20422;-67
2022/02/07 11:06:23;;;;;;;6.87;1.93;;;;;;;11.30;40.30;98158.72;5043946;28;20415;-68
2022/02/07 11:11:35;;;;;;;3.37;1.50;;;;;;;11.77;38.71;98173.06;5042121;28;20430;-67
2022/02/07 11:14:28;;;;;;;4.83;1.50;;;;;;;11.86;38.71;98179.28;5061095;28;20179;-68
2022/02/07 11:17:18;;;;;;;3.00;1.30;;;;;;;11.78;39.14;98196.56;5042676;28;20452;-68
2022/02/07 11:20:14;;;;;;;6.40;1.60;;;;;;;11.46;38.88;98202.84;5064488;28;20449;-68
2022/02/07 11:23:10;;;;;;;6.23;1.70;;;;;;;11.27;39.67;98214.13;5038201;28;20437;-68
2022/02/07 11:28:13;;;;;;;4.70;1.70;;;;;;;10.77;39.65;98227.13;5056734;28;20480;-67
2022/02/07 11:30:43;;;;;;;11.23;1.37;;;;;;;10.63;40.17;98231.72;5043496;28;20535;-67
2022/02/07 11:33:51;;;;;;;4.83;1.50;;;;;;;10.51;40.68;98233.56;5046158;28;20966;-67
2022/02/07 11:36:36;;;;;;;4.40;1.23;;;;;;;10.40;40.97;98233.59;5034415;28;20898;-67
2022/02/07 11:39:15;;;;;;;4.43;1.23;;;;;;;10.21;40.62;98237.69;5011710;28;20429;-67
2022/02/07 11:41:56;;;;;;;6.63;1.70;;;;;;;10.18;41.84;98248.44;5011038;28;20985;-67
2022/02/07 11:44:41;;;;;;;6.17;1.47;;;;;;;10.13;41.77;98254.06;5028723;28;20417;-67
2022/02/07 11:47:23;;;;;;;6.27;1.60;;;;;;;9.98;42.05;98263.94;5022575;28;20801;-67
2022/02/07 11:49:51;;;;;;;9.43;1.50;;;;;;;9.91;42.33;98278.50;5011636;28;20932;-67
2022/02/07 11:52:36;;;;;;;6.90;1.70;;;;;;;9.86;41.93;98280.63;5032062;28;20462;-67
2022/02/07 11:55:12;;;;;;;8.37;1.73;;;;;;;9.84;43.10;98286.00;5018981;28;20426;-68
2022/02/07 11:57:42;;;;;;;5.03;1.30;;;;;;;9.88;42.34;98294.44;5022462;28;20476;-67
2022/02/07 12:00:18;;;;;;;4.13;1.63;;;;;;;9.94;43.31;98299.22;5030630;28;20455;-67
2022/02/07 12:02:48;;;;;;;3.83;1.67;;;;;;;9.90;43.13;98308.25;5031517;28;20502;-67
2022/02/07 12:05:21;;;;;;;3.70;1.50;;;;;;;9.92;42.54;98318.59;5015788;28;21225;-68
2022/02/07 12:08:07;;;;;;;3.50;1.83;;;;;;;9.93;42.11;98315.88;5023759;28;20550;-67
2022/02/07 12:10:38;;;;;;;6.90;1.97;;;;;;;9.89;42.31;98318.88;5031668;28;20611;-67
2022/02/07 12:13:25;;;;;;;10.50;2.00;;;;;;;9.87;42.45;98339.91;5039513;28;20421;-67
2022/02/07 12:15:54;;;;;;;6.50;2.50;;;;;;;9.99;43.00;98317.19;5044530;28;20939;-67
2022/02/07 12:18:22;;;;;;;7.40;1.40;;;;;;;10.01;42.83;98330.16;5044795;28;20422;-67
2022/02/07 12:20:53;;;;;;;5.83;2.00;;;;;;;10.08;42.48;98328.72;5051461;28;20498;-67
2022/02/07 12:23:21;;;;;;;4.97;2.20;;;;;;;10.14;43.15;98328.22;5052470;28;20434;-67
2022/02/07 12:26:00;;;;;;;8.33;2.20;;;;;;;10.13;43.09;98331.78;5052202;28;20504;-66
2022/02/07 12:28:40;;;;;;;10.67;1.37;;;;;;;10.12;42.65;98335.38;5052353;28;20431;-67
2022/02/07 12:31:16;;;;;;;5.20;1.80;;;;;;;10.04;42.22;98343.00;5046085;28;20603;-67
2022/02/07 12:33:43;;;;;;;5.47;1.93;;;;;;;10.07;42.60;98337.53;5034022;28;20773;-67
2022/02/07 12:36:09;;;;;;;6.43;1.60;;;;;;;10.20;42.69;98346.09;5034078;28;20997;-67
2022/02/07 12:38:37;;;;;;;5.43;1.40;;;;;;;10.22;43.17;98344.16;5033788;28;20447;-68
2022/02/07 12:41:05;;;;;;;7.93;1.87;;;;;;;10.28;42.40;98342.81;5015491;28;20212;-67
2022/02/07 12:43:34;;;;;;;7.97;1.70;;;;;;;10.28;42.38;98351.53;5051625;28;20478;-68
2022/02/07 12:46:01;;;;;;;4.93;1.80;;;;;;;10.36;42.50;98364.03;5053417;28;20460;-68
2022/02/07 12:48:32;;;;;;;5.30;1.90;;;;;;;10.24;42.35;98359.78;5053482;28;20492;-67
2022/02/07 12:51:01;;;;;;;6.10;1.73;;;;;;;10.34;42.77;98367.72;5053308;28;20443;-68
2022/02/07 12:53:28;;;;;;;6.17;1.83;;;;;;;10.30;42.72;98367.13;5052984;28;20812;-67
2022/02/07 12:55:56;;;;;;;5.60;2.10;;;;;;;10.20;43.15;98382.78;5053750;28;20414;-67
2022/02/07 12:58:33;;;;;;;9.03;2.00;;;;;;;10.05;43.13;98379.53;5053742;28;20466;-68
2022/02/07 13:00:59;;;;;;;3.57;1.83;;;;;;;10.02;43.38;98381.56;5046552;28;20441;-68
2022/02/07 13:03:24;;;;;;;4.97;1.43;;;;;;;9.83;43.20;98368.13;5047298;28;20552;-68
2022/02/07 13:05:50;;;;;;;7.97;2.10;;;;;;;9.90;43.59;98378.13;5033795;28;20186;-68
2022/02/07 13:08:17;;;;;;;6.53;1.97;;;;;;;9.94;43.74;98369.94;5033470;28;20773;-68
2022/02/07 13:10:54;;;;;;;5.07;1.60;;;;;;;9.81;44.24;98384.94;5041040;28;20211;-68
2022/02/07 13:13:38;;;;;;;13.23;2.57;;;;;;;9.84;44.09;98387.28;5041509;28;20807;-68
2022/02/07 13:16:04;;;;;;;5.57;1.53;;;;;;;9.86;43.92;98384.56;5033281;28;20791;-66
2022/02/07 13:18:33;;;;;;;11.10;2.00;;;;;;;9.76;43.61;98381.81;5015618;28;20486;-68
2022/02/07 13:21:04;;;;;;;6.20;1.97;;;;;;;9.72;44.59;98383.00;5033080;28;20956;-68
2022/02/07 13:23:29;;;;;;;8.83;2.00;;;;;;;9.74;44.67;98379.31;5048614;28;20428;-67
2022/02/07 13:25:56;;;;;;;11.27;1.80;;;;;;;9.68;44.84;98388.50;5053254;28;20781;-67
2022/02/07 13:28:28;;;;;;;6.57;2.00;;;;;;;9.72;44.97;98383.00;5044808;28;20698;-67
2022/02/07 13:30:55;;;;;;;8.10;1.50;;;;;;;9.76;44.84;98389.66;5031634;28;20457;-68
2022/02/07 13:33:21;;;;;;;8.17;1.60;;;;;;;9.78;45.12;98393.00;5044553;28;20792;-67
2022/02/07 13:35:49;;;;;;;3.97;1.57;;;;;;;9.99;45.15;98396.56;5033176;28;20483;-67
2022/02/07 13:38:18;;;;;;;6.70;1.83;;;;;;;10.08;44.57;98396.84;5048326;28;20214;-67
2022/02/07 13:40:45;;;;;;;4.20;1.67;;;;;;;10.01;44.53;98395.63;5032347;28;20442;-67
2022/02/07 13:43:37;;;;;;;5.53;1.97;;;;;;;10.05;44.75;98402.31;5040506;28;20430;-66
2022/02/07 13:46:04;;;;;;;5.55;2.00;;;;;;;10.06;44.38;98393.50;5044658;28;20428;-68
2022/02/07 13:48:32;;;;;;;3.70;1.93;;;;;;;10.10;44.35;98402.75;5035346;28;20316;-68
2022/02/07 13:50:59;;;;;;;6.40;1.70;;;;;;;10.03;43.38;98396.34;5031845;28;20516;-68
2022/02/07 13:53:25;;;;;;;6.10;1.50;;;;;;;10.27;43.22;98391.78;5048602;28;20514;-68
2022/02/07 13:55:53;;;;;;;4.57;1.70;;;;;;;10.44;44.02;98400.97;5044514;28;20493;-66
2022/02/07 13:58:33;;;;;;;4.23;1.60;;;;;;;10.67;43.46;98410.56;5052571;28;20464;-67
2022/02/07 14:01:02;;;;;;;13.40;2.50;;;;;;;10.52;42.87;98400.34;5044700;28;20482;-67
2022/02/07 14:03:33;;;;;;;4.60;1.93;;;;;;;10.64;42.88;98413.44;5047650;28;20430;-68
2022/02/07 14:06:07;;;;;;;5.53;1.90;;;;;;;10.62;42.67;98404.84;5032471;28;20422;-68
2022/02/07 14:08:45;;;;;;;9.03;2.57;;;;;;;10.65;42.43;98412.47;5031825;28;20511;-68
2022/02/07 14:11:13;;;;;;;4.93;2.00;;;;;;;10.80;42.34;98427.00;5038768;28;20794;-68
2022/02/07 14:13:40;;;;;;;7.33;1.90;;;;;;;10.85;42.52;98429.22;5049450;28;20904;-68
2022/02/07 14:16:07;;;;;;;2.70;1.70;;;;;;;11.07;42.12;98412.59;5032264;28;20422;-68
2022/02/07 14:18:35;;;;;;;4.50;2.00;;;;;;;11.19;41.87;98424.69;5027580;28;20441;-68
2022/02/07 14:21:08;;;;;;;6.47;2.20;;;;;;;11.24;41.74;98424.31;5031304;28;20449;-68
2022/02/07 14:23:34;;;;;;;6.70;2.00;;;;;;;11.18;41.54;98420.41;5031916;28;20434;-68
2022/02/07 14:26:03;;;;;;;8.57;1.70;;;;;;;11.24;41.20;98439.22;5031886;28;20471;-66
2022/02/07 14:28:28;;;;;;;4.70;1.50;;;;;;;11.31;40.77;98441.22;5048561;28;20430;-67
2022/02/07 14:30:54;;;;;;;6.03;1.63;;;;;;;11.20;41.08;98444.75;5046002;28;20945;-67